createdAt,value
2023-03-23T00:02:30.042Z,19.58
2023-03-23T00:04:57.338Z,20.08
2023-03-23T00:07:28.843Z,19.38
2023-03-23T00:09:56.830Z,22.85
2023-03-23T00:12:34.800Z,19.75
2023-03-23T00:15:06.922Z,19.42
2023-03-23T00:17:37.117Z,19.70
2023-03-23T00:20:06.522Z,19.30
2023-03-23T00:22:38.719Z,19.15
2023-03-23T00:25:07.254Z,18.95
2023-03-23T00:27:34.092Z,19.83
2023-03-23T00:30:01.428Z,19.23
2023-03-23T00:32:31.140Z,19.60
2023-03-23T00:35:01.923Z,20.17
2023-03-23T00:37:29.052Z,19.40
2023-03-23T00:39:58.703Z,20.52
2023-03-23T00:42:26.364Z,19.95
2023-03-23T00:45:01.302Z,23.13
2023-03-23T00:47:28.728Z,20.52
2023-03-23T00:52:24.923Z,19.17
2023-03-23T00:54:52.009Z,19.30
2023-03-23T00:57:19.421Z,22.38
2023-03-23T01:02:13.438Z,20.55
2023-03-23T01:04:40.710Z,22.40
2023-03-23T01:09:37.533Z,18.67
2023-03-23T01:12:04.627Z,19.73
2023-03-23T01:14:31.411Z,20.05
2023-03-23T01:16:58.312Z,19.60
2023-03-23T01:19:25.158Z,23.17
2023-03-23T01:21:51.914Z,23.23
2023-03-23T01:24:21.752Z,19.92
2023-03-23T01:26:48.918Z,20.10
2023-03-23T01:29:15.880Z,19.23
2023-03-23T01:31:43.963Z,19.80
2023-03-23T01:34:11.697Z,19.73
2023-03-23T01:36:38.635Z,20.05
2023-03-23T01:39:07.041Z,19.08
2023-03-23T01:41:35.673Z,20.38
2023-03-23T01:44:07.506Z,20.08
2023-03-23T01:46:37.847Z,19.40
2023-03-23T01:49:31.367Z,18.55
2023-03-23T01:52:04.002Z,18.63
2023-03-23T01:54:31.331Z,18.63
2023-03-23T01:57:01.253Z,19.77
2023-03-23T01:59:30.343Z,19.17
2023-03-23T02:01:57.523Z,21.00
2023-03-23T02:04:26.502Z,23.00
2023-03-23T02:06:54.265Z,20.50
2023-03-23T02:09:21.163Z,21.80
2023-03-23T02:11:54.714Z,20.33
2023-03-23T02:14:23.028Z,20.20
2023-03-23T02:17:04.218Z,19.98
2023-03-23T02:19:50.170Z,20.77
2023-03-23T02:22:31.167Z,19.98
2023-03-23T02:25:13.075Z,18.98
2023-03-23T02:28:04.005Z,19.17
2023-03-23T02:30:59.827Z,19.35
2023-03-23T02:33:38.296Z,19.08
2023-03-23T02:36:30.041Z,20.05
2023-03-23T02:39:19.049Z,21.40
2023-03-23T02:41:56.357Z,20.20
2023-03-23T02:44:29.153Z,20.15
2023-03-23T02:46:57.597Z,19.38
2023-03-23T02:49:28.568Z,22.42
2023-03-23T02:51:58.693Z,19.75
2023-03-23T02:54:27.295Z,23.05
2023-03-23T02:56:56.121Z,19.98
2023-03-23T02:59:23.816Z,26.80
2023-03-23T03:04:29.855Z,21.55
2023-03-23T03:07:16.575Z,23.15
2023-03-23T03:09:49.149Z,20.08
2023-03-23T03:12:32.195Z,19.40
2023-03-23T03:15:16.901Z,19.85
2023-03-23T03:18:16.125Z,20.80
2023-03-23T03:20:49.334Z,19.75
2023-03-23T03:23:17.624Z,20.73
2023-03-23T03:25:48.671Z,19.85
2023-03-23T03:28:22.532Z,21.42
2023-03-23T03:31:02.681Z,20.13
2023-03-23T03:36:02.373Z,19.55
2023-03-23T03:38:29.557Z,19.38
2023-03-23T03:40:57.391Z,19.67
2023-03-23T03:43:24.496Z,19.95
2023-03-23T03:45:54.186Z,19.70
2023-03-23T03:48:21.123Z,19.45
2023-03-23T03:50:48.332Z,19.67
2023-03-23T03:53:15.308Z,19.05
2023-03-23T03:55:46.579Z,19.50
2023-03-23T03:58:14.108Z,20.15
2023-03-23T04:03:17.707Z,21.17
2023-03-23T04:05:45.803Z,20.48
2023-03-23T04:08:25.568Z,22.63
2023-03-23T04:10:52.809Z,19.10
2023-03-23T04:13:19.958Z,20.98
2023-03-23T04:16:10.119Z,20.33
2023-03-23T04:18:36.143Z,19.30
2023-03-23T04:21:04.523Z,19.10
2023-03-23T04:23:34.817Z,20.00
2023-03-23T04:26:02.638Z,20.20
2023-03-23T04:28:31.188Z,19.58
2023-03-23T04:30:58.658Z,23.45
2023-03-23T04:33:55.749Z,18.88
2023-03-23T04:36:20.228Z,20.58
2023-03-23T04:41:13.933Z,20.17
2023-03-23T04:43:42.970Z,20.50
2023-03-23T04:46:10.917Z,19.85
2023-03-23T04:48:40.268Z,20.50
2023-03-23T04:51:07.328Z,19.33
2023-03-23T04:53:34.748Z,19.85
2023-03-23T04:58:30.411Z,19.10
2023-03-23T05:00:57.414Z,19.77
2023-03-23T05:03:24.346Z,19.35
2023-03-23T05:05:54.613Z,20.67
2023-03-23T05:08:28.225Z,19.67
2023-03-23T05:10:58.141Z,19.38
2023-03-23T05:13:26.026Z,20.42
2023-03-23T05:15:53.184Z,19.45
2023-03-23T05:18:21.572Z,23.85
2023-03-23T05:20:50.022Z,19.55
2023-03-23T05:23:16.933Z,19.88
2023-03-23T05:25:43.912Z,20.35
2023-03-23T05:28:13.286Z,20.50
2023-03-23T05:30:40.762Z,18.92
2023-03-23T05:33:07.726Z,20.92
2023-03-23T05:35:34.922Z,22.50
2023-03-23T05:38:03.318Z,21.55
2023-03-23T05:40:31.313Z,22.10
2023-03-23T05:43:00.117Z,20.65
2023-03-23T05:45:27.552Z,19.15
2023-03-23T05:50:21.207Z,24.05
2023-03-23T05:52:48.345Z,21.33
2023-03-23T05:55:16.447Z,21.63
2023-03-23T05:57:43.385Z,21.95
2023-03-23T06:00:15.515Z,20.77
2023-03-23T06:02:47.251Z,21.17
2023-03-23T06:05:15.309Z,20.85
2023-03-23T06:07:45.660Z,25.77
2023-03-23T06:10:14.768Z,23.02
2023-03-23T06:12:42.686Z,23.52
2023-03-23T06:15:14.193Z,24.67
2023-03-23T06:17:45.754Z,26.42
2023-03-23T06:20:17.310Z,21.70
2023-03-23T06:22:55.514Z,22.80
2023-03-23T06:28:28.034Z,24.15
2023-03-23T06:31:17.957Z,24.10
2023-03-23T06:34:20.496Z,23.90
2023-03-23T06:43:25.448Z,24.73
2023-03-23T06:49:13.565Z,23.88
2023-03-23T07:10:11.682Z,25.50
2023-03-23T07:16:49.534Z,24.20
2023-03-23T07:22:59.922Z,22.90
2023-03-23T07:25:58.482Z,23.67
2023-03-23T07:29:06.933Z,22.10
2023-03-23T07:35:14.182Z,25.55
2023-03-23T07:38:20.924Z,22.95
2023-03-23T07:41:27.498Z,23.67
2023-03-23T07:47:16.216Z,27.67
2023-03-23T07:55:57.895Z,24.33
2023-03-23T08:08:06.279Z,22.48
2023-03-23T08:11:13.181Z,22.45
2023-03-23T08:19:48.908Z,23.50
2023-03-23T08:25:45.660Z,25.20
2023-03-23T08:31:15.430Z,25.60
2023-03-23T08:37:20.198Z,29.55
2023-03-23T08:43:40.700Z,24.05
2023-03-23T08:46:24.825Z,24.23
2023-03-23T08:49:13.357Z,26.45
2023-03-23T08:52:09.258Z,24.25
2023-03-23T08:55:04.093Z,28.50
2023-03-23T09:00:45.989Z,25.30
2023-03-23T09:03:20.653Z,26.08
2023-03-23T09:06:13.426Z,26.25
2023-03-23T09:08:58.537Z,26.75
2023-03-23T09:11:47.261Z,25.55
2023-03-23T09:14:15.857Z,26.48
2023-03-23T09:17:04.462Z,28.83
2023-03-23T09:26:02.593Z,27.92
2023-03-23T09:28:34.794Z,25.75
2023-03-23T09:31:15.626Z,30.70
2023-03-23T09:33:48.010Z,26.60
2023-03-23T09:36:34.023Z,32.40
2023-03-23T09:39:08.963Z,28.55
2023-03-23T09:42:17.157Z,31.38
2023-03-23T09:44:52.591Z,29.83
2023-03-23T09:48:06.074Z,29.65
2023-03-23T09:50:41.241Z,27.40
2023-03-23T09:53:36.252Z,27.08
2023-03-23T09:56:11.433Z,28.55
2023-03-23T09:58:49.562Z,24.30
2023-03-23T10:01:23.235Z,25.73
2023-03-23T10:06:20.459Z,26.55
2023-03-23T10:08:59.377Z,27.17
2023-03-23T10:11:35.610Z,24.52
2023-03-23T10:14:08.629Z,26.90
2023-03-23T10:17:03.005Z,26.85
2023-03-23T10:19:46.839Z,26.33
2023-03-23T10:22:18.504Z,26.08
2023-03-23T10:25:04.715Z,27.95
2023-03-23T10:27:44.854Z,29.00
2023-03-23T10:30:12.172Z,25.95
2023-03-23T10:35:17.693Z,29.23
2023-03-23T10:37:50.537Z,24.27
2023-03-23T10:40:26.904Z,25.42
2023-03-23T10:42:54.382Z,27.58
2023-03-23T10:45:23.841Z,24.35
2023-03-23T10:48:14.826Z,25.30
2023-03-23T10:50:45.108Z,27.38
2023-03-23T10:53:40.989Z,25.35
2023-03-23T10:56:28.512Z,25.20
2023-03-23T10:58:57.313Z,25.92
2023-03-23T11:01:36.337Z,25.55
2023-03-23T11:04:03.560Z,27.08
2023-03-23T11:06:34.970Z,27.48
2023-03-23T11:09:11.653Z,24.88
2023-03-23T11:11:44.749Z,25.67
2023-03-23T11:14:21.024Z,26.73
2023-03-23T11:16:56.350Z,26.60
2023-03-23T11:19:42.414Z,25.73
2023-03-23T11:22:17.409Z,26.55
2023-03-23T11:24:49.454Z,27.60
2023-03-23T11:27:16.955Z,30.58
2023-03-23T11:29:58.452Z,25.92
2023-03-23T11:32:29.107Z,25.50
2023-03-23T11:35:18.974Z,27.45
2023-03-23T11:37:58.808Z,26.23
2023-03-23T11:40:29.187Z,26.10
2023-03-23T11:43:09.988Z,29.33
2023-03-23T11:45:41.492Z,25.13
2023-03-23T11:48:27.970Z,25.75
2023-03-23T11:51:12.516Z,26.40
2023-03-23T11:53:51.113Z,25.75
2023-03-23T11:56:45.262Z,25.20
2023-03-23T11:59:34.655Z,25.52
2023-03-23T12:02:21.796Z,24.58
2023-03-23T12:05:21.177Z,24.83
2023-03-23T12:08:31.976Z,26.00
2023-03-23T12:11:26.543Z,25.00
2023-03-23T12:14:30.104Z,27.33
2023-03-23T12:17:18.965Z,25.58
2023-03-23T12:20:21.276Z,26.58
2023-03-23T12:23:05.700Z,25.77
2023-03-23T12:26:17.401Z,28.77
2023-03-23T12:29:18.256Z,26.35
2023-03-23T12:31:58.457Z,26.35
2023-03-23T12:34:43.375Z,27.08
2023-03-23T12:37:34.850Z,25.85
2023-03-23T12:40:39.582Z,26.88
2023-03-23T12:48:27.554Z,24.58
2023-03-23T12:51:26.081Z,25.42
2023-03-23T12:53:57.032Z,34.90
2023-03-23T12:56:34.725Z,24.27
2023-03-23T12:59:11.502Z,30.67
2023-03-23T13:01:44.817Z,24.58
2023-03-23T13:04:25.110Z,26.65
2023-03-23T13:06:52.795Z,31.38
2023-03-23T13:09:34.157Z,24.15
2023-03-23T13:12:06.757Z,24.70
2023-03-23T13:15:20.418Z,26.70
2023-03-23T13:18:05.734Z,27.05
2023-03-23T13:20:56.873Z,29.77
2023-03-23T13:23:29.193Z,24.60
2023-03-23T13:26:04.721Z,25.38
2023-03-23T13:28:50.610Z,25.75
2023-03-23T13:31:26.534Z,23.17
2023-03-23T13:33:58.757Z,23.98
2023-03-23T13:36:34.056Z,27.50
2023-03-23T13:39:04.042Z,26.55
2023-03-23T13:41:32.105Z,30.55
2023-03-23T13:44:26.485Z,47.67
2023-03-23T13:47:09.992Z,30.98
2023-03-23T13:49:50.602Z,25.58
2023-03-23T13:52:38.415Z,33.10
2023-03-23T13:55:29.962Z,30.83
2023-03-23T13:58:02.783Z,26.70
2023-03-23T14:00:35.633Z,26.50
2023-03-23T14:03:11.884Z,36.75
2023-03-23T14:05:46.520Z,25.25
2023-03-23T14:08:38.547Z,39.30
2023-03-23T14:11:13.396Z,3.22
2023-03-23T14:14:01.239Z,5.63
2023-03-23T14:16:36.874Z,3.28
2023-03-23T14:19:14.253Z,2.35
2023-03-23T14:21:43.850Z,4.90
2023-03-23T14:24:14.052Z,3.88
2023-03-23T14:26:41.116Z,2.03
2023-03-23T14:29:08.621Z,16.23
2023-03-23T14:31:37.430Z,13.70
2023-03-23T14:34:12.446Z,7.00
2023-03-23T14:36:41.227Z,1.88
2023-03-23T14:39:08.243Z,5.05
2023-03-23T14:41:37.417Z,6.55
2023-03-23T14:44:07.912Z,7.97
2023-03-23T14:46:35.767Z,11.48
2023-03-23T14:49:07.285Z,7.53
2023-03-23T14:51:34.105Z,11.15
2023-03-23T14:54:04.263Z,3.60
2023-03-23T14:56:38.294Z,23.70
2023-03-23T14:59:10.780Z,22.48
2023-03-23T15:01:39.559Z,23.10
2023-03-23T15:04:16.362Z,24.30
2023-03-23T15:06:48.070Z,24.15
2023-03-23T15:09:21.456Z,22.83
2023-03-23T15:11:59.106Z,40.55
2023-03-23T15:14:34.244Z,36.40
2023-03-23T15:17:02.067Z,23.75
2023-03-23T15:19:34.630Z,24.10
2023-03-23T15:22:25.167Z,25.85
2023-03-23T15:24:54.415Z,21.48
2023-03-23T15:27:40.700Z,23.92
2023-03-23T15:30:25.940Z,23.05
2023-03-23T15:32:55.431Z,6.03
2023-03-23T15:35:26.040Z,7.18
2023-03-23T15:38:03.512Z,2.10
2023-03-23T15:40:35.597Z,2.67
2023-03-23T15:43:35.849Z,2.78
2023-03-23T15:46:23.282Z,15.13
2023-03-23T15:49:07.328Z,5.78
2023-03-23T15:51:34.329Z,14.45
2023-03-23T15:54:05.734Z,9.27
2023-03-23T15:56:36.017Z,16.85
2023-03-23T15:59:02.974Z,10.27
2023-03-23T16:01:31.663Z,11.52
2023-03-23T16:04:05.411Z,28.92
2023-03-23T16:06:34.590Z,32.97
2023-03-23T16:09:02.216Z,2.00
2023-03-23T16:11:32.137Z,5.43
2023-03-23T16:14:00.056Z,20.05
2023-03-23T16:16:35.672Z,21.25
2023-03-23T16:19:03.366Z,7.53
2023-03-23T16:21:30.120Z,11.20
2023-03-23T16:23:57.925Z,2.22
2023-03-23T16:26:24.956Z,4.43
2023-03-23T16:28:55.317Z,20.95
2023-03-23T16:31:26.849Z,13.82
2023-03-23T16:33:53.788Z,13.75
2023-03-23T16:36:20.633Z,1.60
2023-03-23T16:38:49.028Z,8.10
2023-03-23T16:41:17.674Z,39.67
2023-03-23T16:43:44.550Z,29.20
2023-03-23T16:46:13.590Z,4.07
2023-03-23T16:48:40.883Z,21.20
2023-03-23T16:53:36.241Z,22.02
2023-03-23T16:56:03.996Z,20.08
2023-03-23T16:58:30.891Z,21.05
2023-03-23T17:00:57.798Z,25.70
2023-03-23T17:03:24.780Z,22.08
2023-03-23T17:05:52.615Z,21.55
2023-03-23T17:08:20.459Z,20.75
2023-03-23T17:10:47.932Z,21.10
2023-03-23T17:13:14.851Z,22.35
2023-03-23T17:15:45.286Z,22.45
2023-03-23T17:18:13.938Z,21.23
2023-03-23T17:20:41.037Z,23.83
2023-03-23T17:23:07.984Z,20.23
2023-03-23T17:25:35.130Z,22.02
2023-03-23T17:28:05.960Z,24.65
2023-03-23T17:30:34.006Z,21.50
2023-03-23T17:33:00.895Z,21.55
2023-03-23T17:35:27.962Z,22.85
2023-03-23T17:37:54.731Z,29.10
2023-03-23T17:40:21.728Z,21.27
2023-03-23T17:42:48.526Z,22.30
2023-03-23T17:45:15.845Z,20.90
2023-03-23T17:47:42.857Z,22.63
2023-03-23T17:52:40.598Z,21.60
2023-03-23T17:55:08.586Z,23.98
2023-03-23T17:57:36.381Z,21.40
2023-03-23T18:00:07.601Z,21.58
2023-03-23T18:02:35.977Z,21.35
2023-03-23T18:05:02.834Z,21.20
2023-03-23T18:07:29.639Z,21.40
2023-03-23T18:10:00.956Z,21.23
2023-03-23T18:12:28.116Z,30.67
2023-03-23T18:14:59.104Z,13.75
2023-03-23T18:17:26.723Z,2.60
2023-03-23T18:19:53.933Z,2.17
2023-03-23T18:22:20.937Z,3.03
2023-03-23T18:24:47.797Z,2.88
2023-03-23T18:27:15.443Z,3.28
2023-03-23T18:29:42.650Z,6.18
2023-03-23T18:32:09.707Z,3.85
2023-03-23T18:34:38.151Z,3.83
2023-03-23T18:37:05.132Z,5.88
2023-03-23T18:39:34.316Z,6.88
2023-03-23T18:42:01.993Z,6.45
2023-03-23T18:44:32.030Z,5.45
2023-03-23T18:46:59.113Z,6.70
2023-03-23T18:49:26.465Z,17.35
2023-03-23T18:54:20.134Z,10.15
2023-03-23T18:56:47.095Z,26.05
2023-03-23T18:59:14.050Z,6.43
2023-03-23T19:01:41.279Z,7.55
2023-03-23T19:04:08.240Z,7.70
2023-03-23T19:06:35.293Z,10.80
2023-03-23T19:09:03.025Z,15.15
2023-03-23T19:11:30.345Z,14.98
2023-03-23T19:16:27.231Z,12.93
2023-03-23T19:18:54.123Z,11.73
2023-03-23T19:21:25.242Z,15.63
2023-03-23T19:23:54.685Z,18.52
2023-03-23T19:26:37.976Z,5.85
2023-03-23T19:31:37.889Z,4.72
2023-03-23T19:36:32.859Z,3.70
2023-03-23T19:39:02.912Z,5.10
2023-03-23T19:41:30.099Z,5.10
2023-03-23T19:43:57.348Z,12.13
2023-03-23T19:46:26.025Z,8.35
2023-03-23T19:48:54.565Z,8.73
2023-03-23T19:51:22.643Z,11.45
2023-03-23T19:53:50.299Z,3.35
2023-03-23T19:56:24.635Z,3.35
2023-03-23T19:58:52.181Z,3.28
2023-03-23T20:01:19.661Z,5.43
2023-03-23T20:03:46.821Z,5.30
2023-03-23T20:06:15.559Z,5.18
2023-03-23T20:08:47.897Z,4.35
2023-03-23T20:11:19.345Z,5.00
2023-03-23T20:13:48.664Z,9.20
2023-03-23T20:16:17.664Z,4.32
2023-03-23T20:18:46.566Z,8.38
2023-03-23T20:21:19.696Z,4.63
2023-03-23T20:23:48.209Z,2.88
2023-03-23T20:26:20.936Z,2.45
2023-03-23T20:28:48.204Z,5.43
2023-03-23T20:31:23.090Z,6.30
2023-03-23T20:34:00.051Z,3.60
2023-03-23T20:36:35.297Z,3.58
2023-03-23T20:39:05.819Z,3.38
2023-03-23T20:41:36.480Z,4.22
2023-03-23T20:44:04.779Z,5.90
2023-03-23T20:46:32.238Z,2.65
2023-03-23T20:48:59.537Z,2.35
2023-03-23T20:53:53.559Z,4.00
2023-03-23T20:56:21.352Z,3.15
2023-03-23T20:58:48.243Z,2.88
2023-03-23T21:01:15.546Z,3.53
2023-03-23T21:06:10.981Z,4.47
2023-03-23T21:08:39.554Z,6.13
2023-03-23T21:11:09.585Z,2.88
2023-03-23T21:13:37.265Z,4.72
2023-03-23T21:16:05.358Z,5.90
2023-03-23T21:18:32.765Z,3.60
2023-03-23T21:21:00.575Z,5.72
2023-03-23T21:23:29.905Z,3.15
2023-03-23T21:26:03.018Z,2.38
2023-03-23T21:28:30.421Z,2.97
2023-03-23T21:33:28.676Z,13.55
2023-03-23T21:35:55.891Z,3.10
2023-03-23T21:38:26.413Z,4.22
2023-03-23T21:40:54.620Z,8.82
2023-03-23T21:43:27.787Z,13.68
2023-03-23T21:45:56.898Z,12.00
2023-03-23T21:48:26.080Z,26.25
2023-03-23T21:50:53.614Z,25.52
2023-03-23T21:53:21.678Z,12.57
2023-03-23T21:55:54.813Z,21.73
2023-03-23T21:58:26.213Z,3.72
2023-03-23T22:00:55.181Z,3.55
2023-03-23T22:03:24.547Z,3.10
2023-03-23T22:05:55.069Z,9.23
2023-03-23T22:08:23.390Z,3.22
2023-03-23T22:11:01.345Z,3.40
2023-03-23T22:13:30.653Z,3.70
2023-03-23T22:15:59.481Z,4.47
2023-03-23T22:18:26.722Z,24.60
2023-03-23T22:20:54.130Z,24.38
2023-03-23T22:25:48.131Z,23.63
2023-03-23T22:28:15.092Z,25.77
2023-03-23T22:30:41.904Z,25.65
2023-03-23T22:33:08.739Z,24.27
2023-03-23T22:35:35.655Z,24.80
2023-03-23T22:38:05.450Z,23.98
2023-03-23T22:40:32.286Z,25.67
2023-03-23T22:42:59.292Z,26.20
2023-03-23T22:45:27.522Z,29.27
2023-03-23T22:47:54.754Z,25.13
2023-03-23T22:50:24.291Z,24.60
2023-03-23T22:52:51.109Z,24.98
2023-03-23T22:55:18.385Z,26.70
2023-03-23T22:57:46.053Z,25.17
2023-03-23T23:00:18.121Z,23.60
2023-03-23T23:02:45.924Z,25.08
2023-03-23T23:05:13.996Z,24.85
2023-03-23T23:07:41.306Z,26.77
2023-03-23T23:10:08.440Z,26.25
2023-03-23T23:12:35.459Z,26.10
2023-03-23T23:15:04.889Z,24.80
2023-03-23T23:17:32.165Z,24.50
2023-03-23T23:20:00.100Z,27.40
2023-03-23T23:22:27.765Z,25.05
2023-03-23T23:24:54.770Z,24.90
2023-03-23T23:27:22.001Z,25.48
2023-03-23T23:29:51.352Z,23.98
2023-03-23T23:32:18.283Z,25.58
2023-03-23T23:34:45.221Z,24.65
2023-03-23T23:37:12.115Z,24.45
2023-03-23T23:39:41.466Z,25.20
2023-03-23T23:42:08.350Z,25.33
2023-03-23T23:44:35.441Z,25.00
2023-03-23T23:47:02.723Z,24.60
2023-03-23T23:49:29.898Z,24.92
2023-03-23T23:51:57.103Z,23.95
2023-03-23T23:54:30.169Z,25.20
2023-03-23T23:56:58.420Z,24.30
2023-03-23T23:59:26.164Z,25.80
